KAAF

Apalachicola Regional-Cleve Randolph Field Airport

Apalachicola, Florida, USA
METAR KAAF 190653Z AUTO 01005KT 10SM CLR M01/M06 A3037 RMK AO2 SLP283 T10061061
Observed Flight Rules
Jan-19 @ 06:53 UTC (33 minutes ago) Visual Flight Rules
Wind Visibility Clouds
10° at 5 knots 10 miles
  • Clear skies
Temperatures Readings
Current -1°C / 30°F
Dewpoint -6°C / 21°F
Humidity 69%
Altimeter 30.37" Hg
Pressure 1028.3 hPa
Elevation 5
METAR KAAF 190653Z AUTO 01005KT 10SM CLR M01/M06 A3037 RMK AO2 SLP283 T10061061
Observed Flight Rules
Jan-19 @ 06:53 UTC
(33 minutes ago)
VFR
Wind Visibility
10° at 5 knots 10 miles
Clouds
  • Clear skies
Temperature Dewpoint
-1°C / 30°F -6°C / 21°F
Humidity Altimeter Pressure
69% 30.37" Hg 1028.3 hPa